nws-alerts: Checking more than four warning/county codes can delay the loading of your pages. You should use a cron job to get the data.
EllijayWeather Station Historical Data
Daily Summary for September 20, 2018 Units:  English    Metric   Both
Daily Weekly Monthly Yearly Custom
  High: Low: Average:
Temperature: 86.4 °F 64.8 °F 73.8 °F
Dew Point: 74.5 °F 60.4 °F 67.2 °F
Humidity: 87% 57% 81%
Wind Speed: 0mph 0mph 0mph
Wind Gust: 0mph - -
Wind- - North
Pressure: 30.17 in 30.05 in -
Precipitation: 0 in    
Historical Graphs
 
 
Tabular Data for September 20, 2018
Time Temperature Dew Point Pressure Wind Wind Speed Wind Gust Humidity Rainfall Rate (Hourly) solar
00:04 69.1 °F 64.8 °F 30.06 in Calm     86% 0 in meteobridge W/m2
00:09 69.3 °F 64.9 °F 30.07 in Calm     86% 0 in meteobridge W/m2
00:14 69.1 °F 64.8 °F 30.07 in Calm     86% 0 in meteobridge W/m2
00:19 69.1 °F 64.8 °F 30.07 in Calm     86% 0 in meteobridge W/m2
00:24 68.9 °F 64.6 °F 30.07 in Calm     86% 0 in meteobridge W/m2
00:29 68.9 °F 64.9 °F 30.07 in Calm     87% 0 in meteobridge W/m2
00:34 68.7 °F 64.8 °F 30.07 in Calm     87% 0 in meteobridge W/m2
00:39 68.7 °F 64.8 °F 30.07 in Calm     87% 0 in meteobridge W/m2
00:44 68.5 °F 64.6 °F 30.07 in Calm     87% 0 in meteobridge W/m2
00:49 68.5 °F 64.2 °F 30.07 in Calm     86% 0 in meteobridge W/m2
00:54 68.5 °F 64.2 °F 30.07 in Calm     86% 0 in meteobridge W/m2
00:59 68.4 °F 64 °F 30.07 in Calm     86% 0 in meteobridge W/m2
01:04 68.4 °F 64 °F 30.06 in Calm     86% 0 in meteobridge W/m2
01:09 68.4 °F 64 °F 30.07 in Calm     86% 0 in meteobridge W/m2
01:14 68.4 °F 64 °F 30.07 in Calm     86% 0 in meteobridge W/m2
01:19 68.4 °F 64 °F 30.07 in Calm     86% 0 in meteobridge W/m2
01:24 68.2 °F 63.9 °F 30.07 in Calm     86% 0 in meteobridge W/m2
01:29 68.2 °F 63.9 °F 30.07 in Calm     86% 0 in meteobridge W/m2
01:34 68.2 °F 63.9 °F 30.07 in Calm     86% 0 in meteobridge W/m2
01:39 68.2 °F 63.9 °F 30.07 in Calm     86% 0 in meteobridge W/m2
01:44 68 °F 63.7 °F 30.06 in Calm     86% 0 in meteobridge W/m2
01:49 67.8 °F 63.5 °F 30.06 in Calm     86% 0 in meteobridge W/m2
01:54 67.8 °F 63.5 °F 30.06 in Calm     86% 0 in meteobridge W/m2
01:59 67.6 °F 63.3 °F 30.06 in Calm     86% 0 in meteobridge W/m2
02:04 67.6 °F 63.3 °F 30.06 in Calm     86% 0 in meteobridge W/m2
02:09 67.6 °F 63.3 °F 30.06 in Calm     86% 0 in meteobridge W/m2
02:14 67.5 °F 63.1 °F 30.06 in Calm     86% 0 in meteobridge W/m2
02:19 67.5 °F 63.1 °F 30.06 in Calm     86% 0 in meteobridge W/m2
02:24 67.5 °F 63.1 °F 30.06 in Calm     86% 0 in meteobridge W/m2
02:29 67.3 °F 63 °F 30.06 in Calm     86% 0 in meteobridge W/m2
02:34 67.3 °F 63 °F 30.06 in Calm     86% 0 in meteobridge W/m2
02:39 67.3 °F 63 °F 30.06 in Calm     86% 0 in meteobridge W/m2
02:44 67.3 °F 63 °F 30.06 in Calm     86% 0 in meteobridge W/m2
02:49 67.1 °F 62.8 °F 30.06 in Calm     86% 0 in meteobridge W/m2
02:54 67.1 °F 62.8 °F 30.06 in Calm     86% 0 in meteobridge W/m2
02:59 66.9 °F 62.6 °F 30.06 in Calm     86% 0 in meteobridge W/m2
03:04 66.9 °F 62.6 °F 30.06 in Calm     86% 0 in meteobridge W/m2
03:09 66.9 °F 62.6 °F 30.06 in Calm     86% 0 in meteobridge W/m2
03:14 66.9 °F 62.6 °F 30.06 in Calm     86% 0 in meteobridge W/m2
03:19 66.9 °F 62.6 °F 30.06 in Calm     86% 0 in meteobridge W/m2
03:24 66.9 °F 62.6 °F 30.06 in Calm     86% 0 in meteobridge W/m2
03:29 66.9 °F 62.6 °F 30.06 in Calm     86% 0 in meteobridge W/m2
03:34 66.7 °F 62.4 °F 30.06 in Calm     86% 0 in meteobridge W/m2
03:39 66.7 °F 62.4 °F 30.05 in Calm     86% 0 in meteobridge W/m2
03:44 66.7 °F 62.4 °F 30.06 in Calm     86% 0 in meteobridge W/m2
03:49 66.7 °F 62.4 °F 30.06 in Calm     86% 0 in meteobridge W/m2
03:54 66.7 °F 62.4 °F 30.06 in Calm     86% 0 in meteobridge W/m2
03:59 66.6 °F 62.2 °F 30.06 in Calm     86% 0 in meteobridge W/m2
04:04 66.6 °F 62.2 °F 30.06 in Calm     86% 0 in meteobridge W/m2
04:09 66.6 °F 62.2 °F 30.06 in Calm     86% 0 in meteobridge W/m2
04:14 66.6 °F 62.2 °F 30.06 in Calm     86% 0 in meteobridge W/m2
04:19 66.4 °F 62.1 °F 30.06 in Calm     86% 0 in meteobridge W/m2
04:24 66.4 °F 62.1 °F 30.06 in Calm     86% 0 in meteobridge W/m2
04:29 66.4 °F 62.1 °F 30.06 in Calm     86% 0 in meteobridge W/m2
04:34 66.4 °F 62.1 °F 30.07 in Calm     86% 0 in meteobridge W/m2
04:39 66.4 °F 62.1 °F 30.07 in Calm     86% 0 in meteobridge W/m2
04:44 66.4 °F 62.1 °F 30.07 in Calm     86% 0 in meteobridge W/m2
04:49 66.2 °F 61.9 °F 30.07 in Calm     86% 0 in meteobridge W/m2
04:54 66.2 °F 61.9 °F 30.07 in Calm     86% 0 in meteobridge W/m2
04:59 66 °F 61.7 °F 30.07 in Calm     86% 0 in meteobridge W/m2
05:04 66 °F 61.7 °F 30.07 in Calm     86% 0 in meteobridge W/m2
05:09 66 °F 61.7 °F 30.07 in Calm     86% 0 in meteobridge W/m2
05:14 66.2 °F 61.9 °F 30.07 in Calm     86% 0 in meteobridge W/m2
05:19 66.2 °F 61.9 °F 30.07 in Calm     86% 0 in meteobridge W/m2
05:24 66.2 °F 61.9 °F 30.08 in Calm     86% 0 in meteobridge W/m2
05:29 66 °F 61.7 °F 30.08 in Calm     86% 0 in meteobridge W/m2
05:34 66 °F 61.7 °F 30.08 in Calm     86% 0 in meteobridge W/m2
05:39 66 °F 61.7 °F 30.08 in Calm     86% 0 in meteobridge W/m2
05:44 66 °F 61.7 °F 30.08 in Calm     86% 0 in meteobridge W/m2
05:49 66 °F 61.7 °F 30.08 in Calm     86% 0 in meteobridge W/m2
05:54 66 °F 61.7 °F 30.08 in Calm     86% 0 in meteobridge W/m2
05:59 66 °F 61.7 °F 30.09 in Calm     86% 0 in meteobridge W/m2
06:04 66 °F 61.7 °F 30.09 in Calm     86% 0 in meteobridge W/m2
06:09 66 °F 61.7 °F 30.09 in Calm     86% 0 in meteobridge W/m2
06:14 66 °F 61.7 °F 30.09 in Calm     86% 0 in meteobridge W/m2
06:19 66 °F 61.7 °F 30.09 in Calm     86% 0 in meteobridge W/m2
06:24 66 °F 61.7 °F 30.09 in Calm     86% 0 in meteobridge W/m2
06:29 66 °F 61.7 °F 30.09 in Calm     86% 0 in meteobridge W/m2
06:34 66.2 °F 61.9 °F 30.10 in Calm     86% 0 in meteobridge W/m2
06:39 66 °F 61.7 °F 30.10 in Calm     86% 0 in meteobridge W/m2
06:44 66.2 °F 61.9 °F 30.10 in Calm     86% 0 in meteobridge W/m2
06:49 66 °F 61.7 °F 30.11 in Calm     86% 0 in meteobridge W/m2
06:54 66 °F 61.7 °F 30.11 in Calm     86% 0 in meteobridge W/m2
06:59 66 °F 61.7 °F 30.11 in Calm     86% 0 in meteobridge W/m2
07:04 65.8 °F 61.5 °F 30.11 in Calm     86% 0 in meteobridge W/m2
07:09 65.7 °F 61.3 °F 30.11 in Calm     86% 0 in meteobridge W/m2
07:14 65.5 °F 61.2 °F 30.11 in Calm     86% 0 in meteobridge W/m2
07:19 65.1 °F 60.8 °F 30.11 in Calm     86% 0 in meteobridge W/m2
07:24 65.1 °F 60.8 °F 30.12 in Calm     86% 0 in meteobridge W/m2
07:29 64.9 °F 60.6 °F 30.12 in Calm     86% 0 in meteobridge W/m2
07:34 64.9 °F 60.6 °F 30.12 in Calm     86% 0 in meteobridge W/m2
07:39 64.8 °F 60.4 °F 30.12 in Calm     86% 0 in meteobridge W/m2
07:44 64.8 °F 60.4 °F 30.12 in Calm     86% 0 in meteobridge W/m2
07:49 64.8 °F 60.4 °F 30.12 in Calm     86% 0 in meteobridge W/m2
07:54 64.8 °F 60.4 °F 30.13 in Calm     86% 0 in meteobridge W/m2
07:59 64.8 °F 60.4 °F 30.13 in Calm     86% 0 in meteobridge W/m2
08:04 64.9 °F 60.6 °F 30.14 in Calm     86% 0 in meteobridge W/m2
08:09 64.9 °F 60.6 °F 30.14 in Calm     86% 0 in meteobridge W/m2
08:14 64.9 °F 60.6 °F 30.14 in Calm     86% 0 in meteobridge W/m2
08:19 65.1 °F 60.8 °F 30.14 in Calm     86% 0 in meteobridge W/m2
08:24 65.1 °F 60.8 °F 30.14 in Calm     86% 0 in meteobridge W/m2
08:29 65.5 °F 60.8 °F 30.14 in Calm     85% 0 in meteobridge W/m2
08:34 65.7 °F 61.3 °F 30.14 in Calm     86% 0 in meteobridge W/m2
08:39 65.8 °F 61.2 °F 30.14 in Calm     85% 0 in meteobridge W/m2
08:44 66.2 °F 61.5 °F 30.14 in Calm     85% 0 in meteobridge W/m2
08:49 66.6 °F 61.9 °F 30.15 in Calm     85% 0 in meteobridge W/m2
08:54 66.7 °F 62.1 °F 30.15 in Calm     85% 0 in meteobridge W/m2
08:59 66.9 °F 62.2 °F 30.15 in Calm     85% 0 in meteobridge W/m2
09:04 67.3 °F 62.6 °F 30.15 in Calm     85% 0 in meteobridge W/m2
09:09 67.5 °F 62.8 °F 30.15 in Calm     85% 0 in meteobridge W/m2
09:14 67.6 °F 63 °F 30.15 in Calm     85% 0 in meteobridge W/m2
09:19 68 °F 63.3 °F 30.15 in Calm     85% 0 in meteobridge W/m2
09:24 68.4 °F 63.7 °F 30.15 in Calm     85% 0 in meteobridge W/m2
09:29 68.7 °F 64 °F 30.16 in Calm     85% 0 in meteobridge W/m2
09:34 69.1 °F 64 °F 30.16 in Calm     84% 0 in meteobridge W/m2
09:39 69.4 °F 64.4 °F 30.16 in Calm     84% 0 in meteobridge W/m2
09:44 70 °F 64.9 °F 30.16 in Calm     84% 0 in meteobridge W/m2
09:49 70.3 °F 65.3 °F 30.16 in Calm     84% 0 in meteobridge W/m2
09:54 70.7 °F 65.7 °F 30.16 in Calm     84% 0 in meteobridge W/m2
09:59 71.2 °F 66.2 °F 30.16 in Calm     84% 0 in meteobridge W/m2
10:04 71.6 °F 66.6 °F 30.16 in Calm     84% 0 in meteobridge W/m2
10:09 72 °F 66.9 °F 30.16 in Calm     84% 0 in meteobridge W/m2
10:14 72.1 °F 67.1 °F 30.17 in Calm     84% 0 in meteobridge W/m2
10:19 72.7 °F 67.6 °F 30.17 in Calm     84% 0 in meteobridge W/m2
10:24 73 °F 68.2 °F 30.17 in Calm     85% 0 in meteobridge W/m2
10:29 73.4 °F 68.5 °F 30.17 in Calm     85% 0 in meteobridge W/m2
10:34 73.8 °F 69.3 °F 30.17 in Calm     86% 0 in meteobridge W/m2
10:39 74.3 °F 69.8 °F 30.17 in Calm     86% 0 in meteobridge W/m2
10:44 74.8 °F 70.7 °F 30.17 in Calm     87% 0 in meteobridge W/m2
10:49 75.6 °F 71.4 °F 30.17 in Calm     87% 0 in meteobridge W/m2
10:54 75.9 °F 71.8 °F 30.17 in Calm     87% 0 in meteobridge W/m2
10:59 76.6 °F 72.1 °F 30.17 in Calm     86% 0 in meteobridge W/m2
11:04 77.2 °F 72.3 °F 30.17 in Calm     85% 0 in meteobridge W/m2
11:09 77.5 °F 72.3 °F 30.17 in Calm     84% 0 in meteobridge W/m2
11:14 78.3 °F 72.3 °F 30.17 in Calm     82% 0 in meteobridge W/m2
11:19 79 °F 73.4 °F 30.17 in Calm     83% 0 in meteobridge W/m2
11:24 79.3 °F 72 °F 30.17 in Calm     78% 0 in meteobridge W/m2
11:29 80.1 °F 73.4 °F 30.17 in Calm     80% 0 in meteobridge W/m2
11:34 80.4 °F 72.9 °F 30.17 in Calm     78% 0 in meteobridge W/m2
11:39 80.6 °F 71.1 °F 30.16 in Calm     73% 0 in meteobridge W/m2
11:44 81 °F 71.4 °F 30.16 in Calm     73% 0 in meteobridge W/m2
11:49 81.5 °F 72.9 °F 30.16 in Calm     75% 0 in meteobridge W/m2
11:54 81.9 °F 72 °F 30.16 in Calm     72% 0 in meteobridge W/m2
11:59 82 °F 69.6 °F 30.16 in Calm     66% 0 in meteobridge W/m2
12:04 82.2 °F 71.1 °F 30.16 in Calm     69% 0 in meteobridge W/m2
12:09 82.6 °F 72.1 °F 30.16 in Calm     71% 0 in meteobridge W/m2
12:14 82.8 °F 70.2 °F 30.16 in Calm     66% 0 in meteobridge W/m2
12:19 83.3 °F 70.7 °F 30.16 in Calm     66% 0 in meteobridge W/m2
12:24 83.7 °F 71.1 °F 30.16 in Calm     66% 0 in meteobridge W/m2
12:29 83.8 °F 70.9 °F 30.16 in Calm     65% 0 in meteobridge W/m2
12:34 84 °F 69.6 °F 30.15 in Calm     62% 0 in meteobridge W/m2
12:39 84.4 °F 69.4 °F 30.15 in Calm     61% 0 in meteobridge W/m2
12:44 84.4 °F 68.9 °F 30.15 in Calm     60% 0 in meteobridge W/m2
12:49 84.6 °F 70.2 °F 30.15 in Calm     62% 0 in meteobridge W/m2
12:54 84.7 °F 72.1 °F 30.15 in Calm     66% 0 in meteobridge W/m2
12:59 84.6 °F 70.5 °F 30.15 in Calm     63% 0 in meteobridge W/m2
13:04 84.6 °F 71.1 °F 30.14 in Calm     64% 0 in meteobridge W/m2
13:09 84.7 °F 70.3 °F 30.14 in Calm     62% 0 in meteobridge W/m2
13:14 84.9 °F 68.9 °F 30.14 in Calm     59% 0 in meteobridge W/m2
13:19 84.9 °F 69.4 °F 30.14 in Calm     60% 0 in meteobridge W/m2
13:24 84.9 °F 68.9 °F 30.14 in Calm     59% 0 in meteobridge W/m2
13:29 85.1 °F 68.7 °F 30.13 in Calm     58% 0 in meteobridge W/m2
13:34 85.6 °F 69.1 °F 30.13 in Calm     58% 0 in meteobridge W/m2
13:39 85.8 °F 69.8 °F 30.13 in Calm     59% 0 in meteobridge W/m2
13:44 85.8 °F 69.8 °F 30.13 in Calm     59% 0 in meteobridge W/m2
13:49 85.8 °F 68.9 °F 30.13 in Calm     57% 0 in meteobridge W/m2
13:54 86.2 °F 69.1 °F 30.12 in Calm     57% 0 in meteobridge W/m2
13:59 86.4 °F 69.3 °F 30.12 in Calm     57% 0 in meteobridge W/m2
14:04 86.2 °F 69.1 °F 30.12 in Calm     57% 0 in meteobridge W/m2
14:09 85.8 °F 68.9 °F 30.12 in Calm     57% 0 in meteobridge W/m2
14:14 85.6 °F 71.1 °F 30.12 in Calm     62% 0 in meteobridge W/m2
14:19 85.3 °F 70.7 °F 30.12 in Calm     62% 0 in meteobridge W/m2
14:24 84.7 °F 71.2 °F 30.11 in Calm     64% 0 in meteobridge W/m2
14:29 84.6 °F 72.3 °F 30.11 in Calm     67% 0 in meteobridge W/m2
14:34 84 °F 72.7 °F 30.11 in Calm     69% 0 in meteobridge W/m2
14:39 83.8 °F 73 °F 30.11 in Calm     70% 0 in meteobridge W/m2
14:44 83.7 °F 72.9 °F 30.11 in Calm     70% 0 in meteobridge W/m2
14:49 83.5 °F 73.9 °F 30.10 in Calm     73% 0 in meteobridge W/m2
14:54 83.1 °F 73.9 °F 30.10 in Calm     74% 0 in meteobridge W/m2
14:59 82.9 °F 73.8 °F 30.10 in Calm     74% 0 in meteobridge W/m2
15:04 82.8 °F 71.1 °F 30.10 in Calm     68% 0 in meteobridge W/m2
15:09 82.9 °F 70.3 °F 30.10 in Calm     66% 0 in meteobridge W/m2
15:14 83.3 °F 70.7 °F 30.09 in Calm     66% 0 in meteobridge W/m2
15:19 83.7 °F 69.8 °F 30.09 in Calm     63% 0 in meteobridge W/m2
15:24 83.8 °F 71.8 °F 30.09 in Calm     67% 0 in meteobridge W/m2
15:29 83.7 °F 71.6 °F 30.09 in Calm     67% 0 in meteobridge W/m2
15:34 83.5 °F 71.8 °F 30.09 in Calm     68% 0 in meteobridge W/m2
15:39 83.1 °F 72 °F 30.09 in Calm     69% 0 in meteobridge W/m2
15:44 82.9 °F 71.8 °F 30.08 in Calm     69% 0 in meteobridge W/m2
15:49 82.9 °F 72.5 °F 30.08 in Calm     71% 0 in meteobridge W/m2
15:54 82.8 °F 72.3 °F 30.08 in Calm     71% 0 in meteobridge W/m2
15:59 82.8 °F 73.6 °F 30.08 in Calm     74% 0 in meteobridge W/m2
16:04 82.8 °F 73.6 °F 30.08 in Calm     74% 0 in meteobridge W/m2
16:09 82.9 °F 70 °F 30.08 in Calm     65% 0 in meteobridge W/m2
16:14 83.5 °F 71.4 °F 30.08 in Calm     67% 0 in meteobridge W/m2
16:19 84.4 °F 71.8 °F 30.07 in Calm     66% 0 in meteobridge W/m2
16:24 84.7 °F 70.3 °F 30.08 in Calm     62% 0 in meteobridge W/m2
16:29 85.3 °F 69.8 °F 30.08 in Calm     60% 0 in meteobridge W/m2
16:34 85.5 °F 70 °F 30.08 in Calm     60% 0 in meteobridge W/m2
16:39 85.5 °F 71.4 °F 30.08 in Calm     63% 0 in meteobridge W/m2
16:44 85.3 °F 73 °F 30.08 in Calm     67% 0 in meteobridge W/m2
16:49 84.7 °F 72.5 °F 30.08 in Calm     67% 0 in meteobridge W/m2
16:54 84.6 °F 72.9 °F 30.08 in Calm     68% 0 in meteobridge W/m2
16:59 84.2 °F 74.1 °F 30.08 in Calm     72% 0 in meteobridge W/m2
17:04 83.7 °F 74.1 °F 30.08 in Calm     73% 0 in meteobridge W/m2
17:09 83.1 °F 74.3 °F 30.07 in Calm     75% 0 in meteobridge W/m2
17:14 82.8 °F 74.5 °F 30.08 in Calm     76% 0 in meteobridge W/m2
17:19 82.4 °F 74.5 °F 30.07 in Calm     77% 0 in meteobridge W/m2
17:24 82 °F 74.5 °F 30.08 in Calm     78% 0 in meteobridge W/m2
17:29 81.9 °F 74.3 °F 30.08 in Calm     78% 0 in meteobridge W/m2
17:34 81.5 °F 73.2 °F 30.08 in Calm     76% 0 in meteobridge W/m2
17:39 81.3 °F 73.4 °F 30.08 in Calm     77% 0 in meteobridge W/m2
17:44 81.3 °F 73.4 °F 30.08 in Calm     77% 0 in meteobridge W/m2
17:49 81.1 °F 73.6 °F 30.08 in Calm     78% 0 in meteobridge W/m2
17:54 81.1 °F 73.2 °F 30.08 in Calm     77% 0 in meteobridge W/m2
17:59 81.1 °F 72.9 °F 30.07 in Calm     76% 0 in meteobridge W/m2
18:04 81 °F 72.7 °F 30.07 in Calm     76% 0 in meteobridge W/m2
18:09 80.8 °F 72.9 °F 30.07 in Calm     77% 0 in meteobridge W/m2
18:14 80.6 °F 73 °F 30.07 in Calm     78% 0 in meteobridge W/m2
18:19 80.6 °F 73.4 °F 30.07 in Calm     79% 0 in meteobridge W/m2
18:24 80.6 °F 73.9 °F 30.07 in Calm     80% 0 in meteobridge W/m2
18:29 80.4 °F 73.8 °F 30.07 in Calm     80% 0 in meteobridge W/m2
18:34 80.4 °F 74.1 °F 30.07 in Calm     81% 0 in meteobridge W/m2
18:39 80.2 °F 74.3 °F 30.07 in Calm     82% 0 in meteobridge W/m2
18:44 80.1 °F 74.1 °F 30.07 in Calm     82% 0 in meteobridge W/m2
18:49 79.9 °F 74.3 °F 30.07 in Calm     83% 0 in meteobridge W/m2
18:54 79.5 °F 73.9 °F 30.07 in Calm     83% 0 in meteobridge W/m2
18:59 79.3 °F 74.1 °F 30.07 in Calm     84% 0 in meteobridge W/m2
19:04 79 °F 73.8 °F 30.07 in Calm     84% 0 in meteobridge W/m2
19:09 78.6 °F 73.4 °F 30.07 in Calm     84% 0 in meteobridge W/m2
19:14 78.4 °F 73.2 °F 30.08 in Calm     84% 0 in meteobridge W/m2
19:19 78.3 °F 73 °F 30.08 in Calm     84% 0 in meteobridge W/m2
19:24 77.9 °F 73 °F 30.08 in Calm     85% 0 in meteobridge W/m2
19:29 77.7 °F 72.9 °F 30.08 in Calm     85% 0 in meteobridge W/m2
19:33 77.5 °F 72.7 °F 30.08 in Calm     85% 0 in meteobridge W/m2
19:39 77.2 °F 72.3 °F 30.08 in Calm     85% 0 in meteobridge W/m2
19:44 76.8 °F 72.3 °F 30.09 in Calm     86% 0 in meteobridge W/m2
19:49 76.5 °F 72 °F 30.09 in Calm     86% 0 in meteobridge W/m2
19:54 76.3 °F 71.8 °F 30.09 in Calm     86% 0 in meteobridge W/m2
19:59 75.9 °F 71.4 °F 30.09 in Calm     86% 0 in meteobridge W/m2
20:04 75.6 °F 71.1 °F 30.09 in Calm     86% 0 in meteobridge W/m2
20:09 75.6 °F 71.1 °F 30.09 in Calm     86% 0 in meteobridge W/m2
20:14 75.2 °F 70.7 °F 30.09 in Calm     86% 0 in meteobridge W/m2
20:19 75 °F 70.9 °F 30.09 in Calm     87% 0 in meteobridge W/m2
20:24 74.8 °F 70.7 °F 30.10 in Calm     87% 0 in meteobridge W/m2
20:29 74.7 °F 70.5 °F 30.10 in Calm     87% 0 in meteobridge W/m2
20:34 74.5 °F 70.3 °F 30.10 in Calm     87% 0 in meteobridge W/m2
20:39 74.1 °F 70 °F 30.10 in Calm     87% 0 in meteobridge W/m2
20:44 73.9 °F 69.8 °F 30.10 in Calm     87% 0 in meteobridge W/m2
20:49 73.8 °F 69.6 °F 30.10 in Calm     87% 0 in meteobridge W/m2
20:54 73.6 °F 69.4 °F 30.10 in Calm     87% 0 in meteobridge W/m2
20:59 73.4 °F 69.3 °F 30.10 in Calm     87% 0 in meteobridge W/m2
21:04 73.2 °F 69.1 °F 30.11 in Calm     87% 0 in meteobridge W/m2
21:09 73 °F 68.9 °F 30.11 in Calm     87% 0 in meteobridge W/m2
21:14 72.9 °F 68.7 °F 30.11 in Calm     87% 0 in meteobridge W/m2
21:19 72.7 °F 68.5 °F 30.11 in Calm     87% 0 in meteobridge W/m2
21:24 72.7 °F 68.5 °F 30.11 in Calm     87% 0 in meteobridge W/m2
21:29 72.3 °F 68.2 °F 30.11 in Calm     87% 0 in meteobridge W/m2
21:34 72.1 °F 68 °F 30.12 in Calm     87% 0 in meteobridge W/m2
21:39 72.1 °F 68 °F 30.12 in Calm     87% 0 in meteobridge W/m2
21:44 72 °F 67.8 °F 30.11 in Calm     87% 0 in meteobridge W/m2
21:49 72 °F 67.8 °F 30.12 in Calm     87% 0 in meteobridge W/m2
21:54 71.8 °F 67.6 °F 30.12 in Calm     87% 0 in meteobridge W/m2
21:59 71.8 °F 67.6 °F 30.12 in Calm     87% 0 in meteobridge W/m2
22:04 71.4 °F 67.3 °F 30.12 in Calm     87% 0 in meteobridge W/m2
22:09 71.4 °F 67.3 °F 30.12 in Calm     87% 0 in meteobridge W/m2
22:14 71.2 °F 67.1 °F 30.12 in Calm     87% 0 in meteobridge W/m2
22:19 71.2 °F 67.1 °F 30.12 in Calm     87% 0 in meteobridge W/m2
22:24 71.1 °F 66.9 °F 30.12 in Calm     87% 0 in meteobridge W/m2
22:29 71.1 °F 66.9 °F 30.13 in Calm     87% 0 in meteobridge W/m2
22:34 70.9 °F 66.7 °F 30.13 in Calm     87% 0 in meteobridge W/m2
22:39 70.9 °F 66.6 °F 30.12 in Calm     86% 0 in meteobridge W/m2
22:44 70.7 °F 66.4 °F 30.13 in Calm     86% 0 in meteobridge W/m2
22:49 70.5 °F 66.2 °F 30.13 in Calm     86% 0 in meteobridge W/m2
22:54 70.5 °F 66.2 °F 30.13 in Calm     86% 0 in meteobridge W/m2
22:59 70.5 °F 66.2 °F 30.13 in Calm     86% 0 in meteobridge W/m2
23:04 70.5 °F 66.2 °F 30.13 in Calm     86% 0 in meteobridge W/m2
23:09 70.3 °F 66 °F 30.14 in Calm     86% 0 in meteobridge W/m2
23:14 70.3 °F 66 °F 30.14 in Calm     86% 0 in meteobridge W/m2
23:19 70.2 °F 65.8 °F 30.14 in Calm     86% 0 in meteobridge W/m2
23:24 70.2 °F 65.8 °F 30.14 in Calm     86% 0 in meteobridge W/m2
23:29 70 °F 65.7 °F 30.14 in Calm     86% 0 in meteobridge W/m2
23:34 70 °F 65.7 °F 30.14 in Calm     86% 0 in meteobridge W/m2
23:39 69.8 °F 65.5 °F 30.14 in Calm     86% 0 in meteobridge W/m2
23:44 69.6 °F 65.3 °F 30.14 in Calm     86% 0 in meteobridge W/m2
23:49 69.6 °F 65.3 °F 30.14 in Calm     86% 0 in meteobridge W/m2
23:54 69.6 °F 65.3 °F 30.14 in Calm     86% 0 in meteobridge W/m2
23:59 69.4 °F 65.1 °F 30.14 in Calm     86% 0 in meteobridge W/m2
EllijayWeather
Compliments of Weather Underground - 2.5 mb